Alcoa, TN

9:18 PM EDT on August 29, 2014 (GMT -0400)
McGhee Tyson | Change Station
CLOSE
Current Station
Airport
Location: Knoxville,
Elevation: 981 ft
Nearby Weather Stations

Elev 981 ft 35.82 °N, 83.99 °W | Updated 25 minutes ago

Partly Cloudy
Partly Cloudy
82 °F
Feels Like 83 °F
N
0
Wind Variable Wind from North

Today
High -- | Low -- °F
--% Chance of Precip.
Yesterday
High -- | Low -- °F
Precip. -- in
7:05 AM 8:07 PM
Waxing Crescent, 18% visible
Pressure 30.02 in
Visibility 10.0 miles
Clouds Few 10000 ft
Few 25000 ft
Heat Index 83 °F
Dew Point 63 °F
Humidity 52%
Rainfall 0.00 in
Snow Depth Not available.
UV 0 out of 12
Pollen 9.80 out of 12
Ozone Good
PM2.5 Good
Flu Activity Not available.
METAR KTYS 300053Z 00000KT 10SM FEW100 FEW250 28/17 A3005 RMK AO2 SLP164 T02780172

More Conditions Fewer Conditions

Pressure 30.02 in
Visibility 10.0 miles
Clouds Few 10000 ft
Few 25000 ft
Heat Index 83 °F
Dew Point 63 °F
Humidity 52%
Rainfall 0.00 in
Snow Depth Not available.
UV 0 out of 12
Pollen 9.80 out of 12
Ozone Good
PM2.5 Good
Flu Activity Not available.
METAR KTYS 300053Z 00000KT 10SM FEW100 FEW250 28/17 A3005 RMK AO2 SLP164 T02780172

More Conditions Fewer Conditions

10-Day Weather Forecast

Almanac

Astronomy

Aug. 29, 2014 Rise Set
Actual Time 7:05 AM EDT 8:07 PM EDT
Civil Twilight 6:39 AM EDT 8:33 PM EDT
Nautical Twilight 6:08 AM EDT 9:04 PM EDT
Astronomical Twilight 5:35 AM EDT 9:37 PM EDT
Moon 10:45 AM EDT (8/29) 10:14 PM EDT (8/29)
Length of Visible Light 13h 54m
Length of Day
13h 01m
Tomorrow will be 2m 9s shorter.
Waxing Crescent, 18% of the Moon is Illuminated
Today
Waxing Crescent
Sep 2
First Quarter
Sep 8
Full
Sep 15
Last Quarter
Sep 24
New

Today's Extremes

State Highs State Lows

Community

WunderPhotos

Upload Photos

1,748,395 photos uploaded!

Nearby

Air Quality

  Air Quality AQ Index Pollutant
Yesterday Moderate
PM2.5
Yesterday Moderate
OZONE
Current Good
PM2.5
Current Good
OZONE
Friday Moderate
OZONE
Friday Moderate
PM2.5
Saturday Moderate
PM2.5
Saturday Moderate
OZONE
Sunday Moderate
PM2.5
Sunday Good
OZONE

Snow Depth

Station Depth Elevation
No new snow has been reported.

Earthquake Activity

City Distance Mag. Time & Date
No recent earthquake activity has been reported nearby.
Minimum magnitude displayed is 2.5.

Coastal Water Temperatures

Place Temperature
No Stations Reporting

Nearby Weather Stations